createdAt,value
2022-12-02T00:02:31.133Z,5.39
2022-12-02T00:05:13.179Z,4.36
2022-12-02T00:07:46.494Z,3.18
2022-12-02T00:10:26.433Z,2.33
2022-12-02T00:13:01.961Z,1.68
2022-12-02T00:15:42.288Z,1.55
2022-12-02T00:18:15.800Z,2.75
2022-12-02T00:20:47.586Z,3.86
2022-12-02T00:23:19.353Z,4.68
2022-12-02T00:25:52.902Z,5.24
2022-12-02T00:28:24.657Z,5.69
2022-12-02T00:30:56.415Z,5.69
2022-12-02T00:33:28.301Z,4.53
2022-12-02T00:36:00.251Z,3.33
2022-12-02T00:38:32.706Z,2.40
2022-12-02T00:41:05.948Z,1.72
2022-12-02T00:43:54.952Z,1.51
2022-12-02T00:46:35.947Z,2.73
2022-12-02T00:49:10.256Z,3.95
2022-12-02T00:51:43.731Z,4.78
2022-12-02T00:54:16.085Z,5.33
2022-12-02T00:56:49.287Z,5.74
2022-12-02T00:59:21.691Z,5.75
2022-12-02T01:01:53.509Z,4.60
2022-12-02T01:04:25.486Z,3.45
2022-12-02T01:06:57.266Z,2.60
2022-12-02T01:09:29.039Z,1.92
2022-12-02T01:12:00.857Z,1.66
2022-12-02T01:14:32.728Z,2.60
2022-12-02T01:17:05.535Z,3.69
2022-12-02T01:19:37.309Z,4.53
2022-12-02T01:22:09.840Z,5.15
2022-12-02T01:24:41.538Z,5.52
2022-12-02T01:27:13.352Z,5.51
2022-12-02T01:29:45.361Z,4.43
2022-12-02T01:32:19.225Z,3.30
2022-12-02T01:34:51.246Z,2.39
2022-12-02T01:37:23.210Z,1.72
2022-12-02T01:39:54.993Z,1.46
2022-12-02T01:42:27.041Z,2.49
2022-12-02T01:44:59.215Z,3.66
2022-12-02T01:47:31.078Z,4.51
2022-12-02T01:50:03.207Z,5.15
2022-12-02T01:52:35.485Z,5.57
2022-12-02T01:55:13.136Z,5.68
2022-12-02T01:57:45.003Z,4.63
2022-12-02T02:00:21.633Z,3.46
2022-12-02T02:02:53.391Z,2.50
2022-12-02T02:05:28.661Z,1.78
2022-12-02T02:08:07.644Z,1.49
2022-12-02T02:10:41.261Z,2.56
2022-12-02T02:13:15.534Z,3.68
2022-12-02T02:15:48.197Z,4.54
2022-12-02T02:18:20.402Z,5.12
2022-12-02T02:20:53.425Z,5.47
2022-12-02T02:23:26.533Z,5.41
2022-12-02T02:26:00.853Z,4.26
2022-12-02T02:28:38.800Z,3.06
2022-12-02T02:31:12.174Z,2.21
2022-12-02T02:33:47.403Z,1.55
2022-12-02T02:36:19.378Z,1.35
2022-12-02T02:38:51.364Z,2.38
2022-12-02T02:41:23.390Z,3.50
2022-12-02T02:43:56.035Z,4.35
2022-12-02T02:46:28.022Z,4.99
2022-12-02T02:49:00.149Z,5.37
2022-12-02T02:51:32.315Z,5.67
2022-12-02T02:54:04.750Z,5.64
2022-12-02T02:56:36.630Z,4.51
2022-12-02T02:59:14.949Z,3.31
2022-12-02T03:01:50.927Z,2.31
2022-12-02T03:04:24.338Z,1.59
2022-12-02T03:06:56.797Z,1.30
2022-12-02T03:09:29.346Z,2.26
2022-12-02T03:12:01.355Z,3.37
2022-12-02T03:14:33.459Z,4.10
2022-12-02T03:17:05.555Z,4.60
2022-12-02T03:19:38.764Z,5.00
2022-12-02T03:22:12.202Z,5.29
2022-12-02T03:24:44.363Z,5.53
2022-12-02T03:27:16.258Z,5.49
2022-12-02T03:29:48.183Z,4.41
2022-12-02T03:32:20.068Z,3.21
2022-12-02T03:34:52.475Z,2.25
2022-12-02T03:37:24.864Z,1.52
2022-12-02T03:39:56.673Z,1.23
2022-12-02T03:42:28.784Z,2.22
2022-12-02T03:45:01.784Z,3.43
2022-12-02T03:47:34.022Z,4.31
2022-12-02T03:50:07.341Z,4.89
2022-12-02T03:52:39.703Z,5.29
2022-12-02T03:55:12.832Z,5.60
2022-12-02T03:57:44.533Z,5.61
2022-12-02T04:00:18.043Z,4.53
2022-12-02T04:02:49.920Z,3.36
2022-12-02T04:05:21.741Z,2.47
2022-12-02T04:07:53.644Z,1.82
2022-12-02T04:10:25.457Z,1.54
2022-12-02T04:12:57.178Z,2.47
2022-12-02T04:15:29.254Z,3.64
2022-12-02T04:18:01.164Z,4.55
2022-12-02T04:20:32.917Z,5.17
2022-12-02T04:23:04.703Z,5.58
2022-12-02T04:25:36.728Z,5.83
2022-12-02T04:28:08.814Z,5.75
2022-12-02T04:30:40.658Z,4.55
2022-12-02T04:33:12.404Z,3.29
2022-12-02T04:35:44.338Z,2.31
2022-12-02T04:38:16.096Z,1.59
2022-12-02T04:40:48.436Z,1.31
2022-12-02T04:43:20.563Z,2.25
2022-12-02T04:45:52.336Z,3.37
2022-12-02T04:48:24.105Z,4.19
2022-12-02T04:50:55.820Z,4.73
2022-12-02T04:53:28.020Z,5.15
2022-12-02T04:55:59.773Z,5.45
2022-12-02T04:58:31.516Z,5.60
2022-12-02T05:01:03.266Z,5.50
2022-12-02T05:03:35.065Z,4.34
2022-12-02T05:06:07.506Z,3.08
2022-12-02T05:08:39.233Z,2.09
2022-12-02T05:11:11.029Z,1.38
2022-12-02T05:13:42.930Z,1.11
2022-12-02T05:16:14.705Z,2.10
2022-12-02T05:18:46.623Z,3.20
2022-12-02T05:21:18.604Z,4.03
2022-12-02T05:23:50.377Z,4.59
2022-12-02T05:26:22.230Z,4.99
2022-12-02T05:28:54.033Z,5.26
2022-12-02T05:31:25.831Z,5.50
2022-12-02T05:33:57.824Z,5.71
2022-12-02T05:36:29.548Z,5.59
2022-12-02T05:39:01.349Z,4.41
2022-12-02T05:41:33.111Z,3.16
2022-12-02T05:44:19.839Z,2.20
2022-12-02T05:46:52.641Z,1.70
2022-12-02T05:49:25.470Z,2.59
2022-12-02T05:52:00.577Z,3.67
2022-12-02T05:54:32.829Z,4.44
2022-12-02T05:57:12.483Z,4.98
2022-12-02T05:59:44.224Z,5.34
2022-12-02T06:02:27.128Z,5.58
2022-12-02T06:04:59.015Z,5.78
2022-12-02T06:07:31.060Z,5.66
2022-12-02T06:10:03.192Z,4.50
2022-12-02T06:12:35.814Z,3.28
2022-12-02T06:15:16.081Z,2.31
2022-12-02T06:17:48.445Z,1.52
2022-12-02T06:20:29.885Z,1.18
2022-12-02T06:23:03.462Z,2.26
2022-12-02T06:25:37.634Z,3.33
2022-12-02T06:28:18.508Z,4.23
2022-12-02T06:30:50.834Z,5.00
2022-12-02T06:33:30.511Z,5.50
2022-12-02T06:36:06.069Z,5.89
2022-12-02T06:38:45.783Z,5.77
2022-12-02T06:41:22.081Z,4.40
2022-12-02T06:44:13.964Z,3.10
2022-12-02T06:46:46.227Z,2.02
2022-12-02T06:49:21.625Z,1.31
2022-12-02T06:51:57.319Z,1.02
2022-12-02T06:54:31.115Z,2.02
2022-12-02T06:57:04.526Z,3.18
2022-12-02T06:59:36.324Z,4.08
2022-12-02T07:02:23.488Z,4.73
2022-12-02T07:04:56.230Z,5.15
2022-12-02T07:07:31.535Z,5.49
2022-12-02T07:10:05.956Z,5.40
2022-12-02T07:12:44.393Z,4.11
2022-12-02T07:15:27.819Z,2.83
2022-12-02T07:18:03.258Z,1.83
2022-12-02T07:20:36.405Z,1.14
2022-12-02T07:23:20.177Z,0.95
2022-12-02T07:25:54.173Z,2.20
2022-12-02T07:28:33.152Z,3.49
2022-12-02T07:31:13.618Z,4.35
2022-12-02T07:33:45.704Z,4.84
2022-12-02T07:36:17.820Z,5.25
2022-12-02T07:39:06.530Z,5.62
2022-12-02T07:41:39.454Z,5.45
2022-12-02T07:44:11.367Z,4.11
2022-12-02T07:46:43.215Z,2.85
2022-12-02T07:49:17.077Z,1.90
2022-12-02T07:51:49.042Z,1.19
2022-12-02T07:54:21.055Z,0.95
2022-12-02T07:56:52.890Z,2.10
2022-12-02T07:59:24.642Z,3.38
2022-12-02T08:01:56.497Z,4.26
2022-12-02T08:04:28.838Z,4.85
2022-12-02T08:07:00.621Z,5.28
2022-12-02T08:09:32.376Z,5.61
2022-12-02T08:12:04.244Z,5.51
2022-12-02T08:14:35.993Z,4.32
2022-12-02T08:17:08.351Z,3.15
2022-12-02T08:19:41.597Z,2.26
2022-12-02T08:22:13.329Z,1.61
2022-12-02T08:24:45.074Z,1.11
2022-12-02T08:27:16.844Z,1.01
2022-12-02T08:29:49.876Z,2.16
2022-12-02T08:32:22.739Z,3.38
2022-12-02T08:34:54.630Z,4.21
2022-12-02T08:37:27.397Z,4.82
2022-12-02T08:39:59.166Z,5.30
2022-12-02T08:42:30.959Z,5.38
2022-12-02T08:45:02.848Z,4.35
2022-12-02T08:47:34.612Z,3.20
2022-12-02T08:50:07.433Z,2.36
2022-12-02T08:52:39.274Z,1.70
2022-12-02T08:55:11.307Z,1.14
2022-12-02T08:57:43.688Z,0.98
2022-12-02T09:00:17.449Z,2.07
2022-12-02T09:02:49.456Z,3.38
2022-12-02T09:05:21.417Z,4.32
2022-12-02T09:07:53.266Z,4.94
2022-12-02T09:10:25.152Z,5.42
2022-12-02T09:12:56.912Z,5.43
2022-12-02T09:15:28.985Z,4.30
2022-12-02T09:18:00.776Z,3.14
2022-12-02T09:20:32.608Z,2.27
2022-12-02T09:23:04.406Z,1.64
2022-12-02T09:25:40.112Z,1.14
2022-12-02T09:28:12.590Z,1.05
2022-12-02T09:30:44.761Z,2.20
2022-12-02T09:33:16.906Z,3.45
2022-12-02T09:35:49.243Z,4.33
2022-12-02T09:38:21.123Z,4.97
2022-12-02T09:40:53.102Z,5.40
2022-12-02T09:43:25.070Z,5.59
2022-12-02T09:45:57.087Z,4.58
2022-12-02T09:48:30.255Z,3.46
2022-12-02T09:51:02.989Z,2.59
2022-12-02T09:53:38.488Z,1.95
2022-12-02T09:56:15.062Z,1.42
2022-12-02T09:58:47.919Z,1.28
2022-12-02T10:01:19.930Z,2.40
2022-12-02T10:03:52.907Z,3.61
2022-12-02T10:06:27.662Z,4.51
2022-12-02T10:09:00.574Z,5.18
2022-12-02T10:11:34.368Z,5.68
2022-12-02T10:14:07.211Z,5.82
2022-12-02T10:16:40.632Z,4.85
2022-12-02T10:19:18.240Z,3.77
2022-12-02T10:21:55.435Z,2.94
2022-12-02T10:24:39.777Z,2.31
2022-12-02T10:27:23.750Z,1.80
2022-12-02T10:29:56.159Z,1.76
2022-12-02T10:32:28.927Z,2.91
2022-12-02T10:35:09.853Z,4.07
2022-12-02T10:37:42.344Z,5.04
2022-12-02T10:40:19.313Z,5.76
2022-12-02T10:43:11.484Z,5.98
2022-12-02T10:45:57.479Z,4.86
2022-12-02T10:48:29.408Z,3.79
2022-12-02T10:51:01.289Z,3.02
2022-12-02T10:53:33.894Z,2.39
2022-12-02T10:56:06.353Z,1.92
2022-12-02T10:58:38.245Z,1.57
2022-12-02T11:01:14.003Z,1.59
2022-12-02T11:03:46.404Z,2.82
2022-12-02T11:06:21.827Z,4.11
2022-12-02T11:09:17.220Z,5.01
2022-12-02T11:11:51.303Z,5.74
2022-12-02T11:14:56.026Z,6.00
2022-12-02T11:17:49.387Z,4.77
2022-12-02T11:20:40.853Z,3.59
2022-12-02T11:23:25.421Z,2.84
2022-12-02T11:26:07.261Z,2.26
2022-12-02T11:29:16.234Z,1.79
2022-12-02T11:32:03.656Z,1.80
2022-12-02T11:35:15.813Z,3.38
2022-12-02T11:37:45.386Z,4.78
2022-12-02T11:40:51.425Z,5.48
2022-12-02T11:43:52.056Z,6.11
2022-12-02T11:46:39.611Z,6.12
2022-12-02T11:49:40.240Z,4.96
2022-12-02T11:52:26.409Z,3.86
2022-12-02T11:55:13.246Z,3.10
2022-12-02T11:57:49.282Z,2.51
2022-12-02T12:00:33.972Z,2.10
2022-12-02T12:03:14.897Z,1.76
2022-12-02T12:06:08.253Z,1.82
2022-12-02T12:08:43.122Z,3.41
2022-12-02T12:11:27.266Z,4.69
2022-12-02T12:14:07.951Z,5.54
2022-12-02T12:16:42.483Z,6.14
2022-12-02T12:19:29.877Z,6.33
2022-12-02T12:22:01.771Z,5.33
2022-12-02T12:24:35.289Z,4.36
2022-12-02T12:27:33.856Z,3.59
2022-12-02T12:30:09.370Z,2.90
2022-12-02T12:32:41.582Z,2.39
2022-12-02T12:35:13.602Z,2.01
2022-12-02T12:37:45.534Z,1.67
2022-12-02T12:40:17.881Z,1.66
2022-12-02T12:42:49.790Z,2.85
2022-12-02T12:45:21.674Z,4.08
2022-12-02T12:47:53.474Z,5.05
2022-12-02T12:50:29.865Z,5.68
2022-12-02T12:53:02.165Z,6.23
2022-12-02T12:55:34.146Z,6.46
2022-12-02T12:58:06.221Z,5.54
2022-12-02T13:00:38.137Z,4.47
2022-12-02T13:03:10.128Z,3.65
2022-12-02T13:05:42.183Z,3.00
2022-12-02T13:08:14.604Z,2.51
2022-12-02T13:10:46.523Z,2.09
2022-12-02T13:13:18.597Z,1.76
2022-12-02T13:15:50.582Z,1.76
2022-12-02T13:18:22.337Z,3.05
2022-12-02T13:20:54.446Z,4.46
2022-12-02T13:23:26.351Z,5.42
2022-12-02T13:25:58.558Z,6.09
2022-12-02T13:28:30.398Z,6.27
2022-12-02T13:31:02.485Z,5.29
2022-12-02T13:33:34.712Z,4.24
2022-12-02T13:36:07.272Z,3.50
2022-12-02T13:38:39.153Z,2.94
2022-12-02T13:41:11.152Z,2.49
2022-12-02T13:43:43.110Z,2.40
2022-12-02T13:46:15.111Z,3.47
2022-12-02T13:48:49.288Z,4.64
2022-12-02T13:51:21.041Z,5.55
2022-12-02T13:53:58.539Z,6.21
2022-12-02T13:56:31.222Z,6.68
2022-12-02T13:59:03.168Z,6.82
2022-12-02T14:01:35.460Z,5.85
2022-12-02T14:04:07.786Z,4.79
2022-12-02T14:06:39.590Z,4.01
2022-12-02T14:09:11.720Z,3.40
2022-12-02T14:11:43.575Z,2.91
2022-12-02T14:14:15.616Z,2.50
2022-12-02T14:16:47.580Z,2.43
2022-12-02T14:19:19.323Z,3.52
2022-12-02T14:21:51.078Z,4.72
2022-12-02T14:24:22.797Z,5.65
2022-12-02T14:26:54.671Z,6.32
2022-12-02T14:29:26.446Z,6.53
2022-12-02T14:31:58.314Z,5.59
2022-12-02T14:34:30.944Z,4.51
2022-12-02T14:37:02.869Z,3.70
2022-12-02T14:39:34.764Z,3.10
2022-12-02T14:42:06.963Z,2.63
2022-12-02T14:44:38.869Z,2.26
2022-12-02T14:47:10.812Z,2.23
2022-12-02T14:49:45.412Z,3.30
2022-12-02T14:52:17.581Z,4.38
2022-12-02T14:54:49.620Z,5.21
2022-12-02T14:57:21.613Z,5.94
2022-12-02T14:59:53.445Z,6.54
2022-12-02T15:02:25.332Z,6.72
2022-12-02T15:04:57.803Z,5.76
2022-12-02T15:07:29.845Z,4.68
2022-12-02T15:10:01.910Z,3.83
2022-12-02T15:12:33.708Z,3.16
2022-12-02T15:15:36.107Z,2.62
2022-12-02T15:17:57.628Z,2.11
2022-12-02T15:20:29.427Z,2.00
2022-12-02T15:23:01.202Z,3.03
2022-12-02T15:25:33.171Z,4.26
2022-12-02T15:28:05.223Z,5.18
2022-12-02T15:30:37.431Z,5.75
2022-12-02T15:33:09.412Z,6.16
2022-12-02T15:35:41.241Z,6.22
2022-12-02T15:38:13.032Z,5.24
2022-12-02T15:40:45.282Z,4.18
2022-12-02T15:43:17.217Z,3.38
2022-12-02T15:45:49.069Z,2.80
2022-12-02T15:48:20.861Z,2.32
2022-12-02T15:50:55.268Z,2.16
2022-12-02T15:53:27.856Z,3.22
2022-12-02T15:55:59.867Z,4.53
2022-12-02T15:58:31.767Z,5.51
2022-12-02T16:01:03.767Z,6.19
2022-12-02T16:03:35.781Z,6.65
2022-12-02T16:06:09.042Z,6.77
2022-12-02T16:08:41.014Z,5.77
2022-12-02T16:11:13.027Z,4.67
2022-12-02T16:13:45.080Z,3.82
2022-12-02T16:16:16.872Z,3.17
2022-12-02T16:18:49.583Z,2.66
2022-12-02T16:21:21.565Z,2.52
2022-12-02T16:23:53.361Z,3.65
2022-12-02T16:26:25.125Z,4.85
2022-12-02T16:28:57.049Z,5.58
2022-12-02T16:31:28.996Z,6.16
2022-12-02T16:34:01.268Z,6.63
2022-12-02T16:36:33.377Z,6.90
2022-12-02T16:39:05.495Z,6.70
2022-12-02T16:41:37.335Z,5.55
2022-12-02T16:44:09.370Z,4.38
2022-12-02T16:46:42.079Z,3.48
2022-12-02T16:49:14.111Z,2.80
2022-12-02T16:51:46.174Z,2.52
2022-12-02T16:54:18.177Z,3.52
2022-12-02T16:56:54.326Z,4.65
2022-12-02T16:59:28.168Z,5.32
2022-12-02T17:02:00.179Z,5.75
2022-12-02T17:04:32.153Z,6.19
2022-12-02T17:07:04.077Z,6.56
2022-12-02T17:09:36.034Z,6.90
2022-12-02T17:12:09.267Z,6.84
2022-12-02T17:14:41.307Z,5.72
2022-12-02T17:17:37.716Z,4.58
2022-12-02T17:20:05.374Z,3.56
2022-12-02T17:22:37.217Z,2.87
2022-12-02T17:25:10.515Z,2.59
2022-12-02T17:27:42.619Z,3.56
2022-12-02T17:30:15.432Z,4.63
2022-12-02T17:32:53.348Z,5.31
2022-12-02T17:35:31.023Z,5.83
2022-12-02T17:38:03.102Z,6.28
2022-12-02T17:40:35.010Z,6.62
2022-12-02T17:43:07.488Z,6.86
2022-12-02T17:45:39.668Z,6.77
2022-12-02T17:48:11.627Z,5.67
2022-12-02T17:50:43.531Z,4.55
2022-12-02T17:53:15.270Z,3.67
2022-12-02T17:55:49.737Z,3.01
2022-12-02T17:58:21.535Z,2.78
2022-12-02T18:00:53.424Z,3.79
2022-12-02T18:03:25.498Z,4.94
2022-12-02T18:05:57.446Z,5.68
2022-12-02T18:08:29.571Z,6.23
2022-12-02T18:11:01.685Z,6.56
2022-12-02T18:13:33.637Z,6.78
2022-12-02T18:16:07.757Z,7.07
2022-12-02T18:18:39.554Z,7.09
2022-12-02T18:21:11.744Z,5.98
2022-12-02T18:23:43.946Z,4.83
2022-12-02T18:26:16.367Z,3.94
2022-12-02T18:28:48.297Z,3.25
2022-12-02T18:31:20.327Z,2.97
2022-12-02T18:33:52.616Z,3.96
2022-12-02T18:36:24.617Z,5.06
2022-12-02T18:38:56.544Z,5.80
2022-12-02T18:41:28.539Z,6.33
2022-12-02T18:44:00.528Z,6.77
2022-12-02T18:46:32.344Z,7.04
2022-12-02T18:49:04.315Z,7.11
2022-12-02T18:51:36.362Z,6.14
2022-12-02T18:54:08.276Z,4.97
2022-12-02T18:56:40.217Z,4.07
2022-12-02T18:59:12.953Z,3.38
2022-12-02T19:01:47.695Z,3.13
2022-12-02T19:04:19.523Z,4.14
2022-12-02T19:06:51.285Z,5.25
2022-12-02T19:09:23.055Z,6.04
2022-12-02T19:11:54.919Z,6.57
2022-12-02T19:14:27.145Z,6.98
2022-12-02T19:16:58.875Z,6.99
2022-12-02T19:19:30.609Z,5.92
2022-12-02T19:22:02.385Z,4.72
2022-12-02T19:24:34.301Z,3.81
2022-12-02T19:27:06.691Z,3.35
2022-12-02T19:29:38.561Z,4.17
2022-12-02T19:32:10.749Z,5.26
2022-12-02T19:34:43.015Z,6.06
2022-12-02T19:37:15.337Z,6.57
2022-12-02T19:39:47.110Z,6.93
2022-12-02T19:42:18.937Z,7.25
2022-12-02T19:44:51.005Z,7.23
2022-12-02T19:47:22.960Z,6.11
2022-12-02T19:49:54.756Z,4.95
2022-12-02T19:52:26.544Z,4.07
2022-12-02T19:54:58.773Z,3.39
2022-12-02T19:57:30.782Z,3.15
2022-12-02T20:00:02.702Z,4.28
2022-12-02T20:02:44.095Z,5.49
2022-12-02T20:05:18.641Z,6.24
2022-12-02T20:07:51.226Z,6.67
2022-12-02T20:10:23.263Z,7.06
2022-12-02T20:12:55.090Z,7.31
2022-12-02T20:15:26.870Z,7.28
2022-12-02T20:17:59.180Z,6.19
2022-12-02T20:20:30.912Z,4.98
2022-12-02T20:23:02.858Z,4.03
2022-12-02T20:25:34.795Z,3.59
2022-12-02T20:28:06.725Z,4.48
2022-12-02T20:30:38.651Z,5.58
2022-12-02T20:33:11.023Z,6.35
2022-12-02T20:35:42.840Z,6.90
2022-12-02T20:38:14.843Z,7.23
2022-12-02T20:40:46.653Z,7.47
2022-12-02T20:43:18.430Z,7.38
2022-12-02T20:45:50.316Z,6.28
2022-12-02T20:48:22.221Z,5.11
2022-12-02T20:50:55.060Z,4.19
2022-12-02T20:53:26.837Z,3.50
2022-12-02T20:55:58.657Z,3.24
2022-12-02T20:58:33.542Z,4.25
2022-12-02T21:01:11.941Z,5.43
2022-12-02T21:03:47.335Z,6.27
2022-12-02T21:06:19.810Z,6.79
2022-12-02T21:08:55.404Z,7.19
2022-12-02T21:11:27.382Z,7.50
2022-12-02T21:13:59.834Z,7.42
2022-12-02T21:16:31.696Z,6.24
2022-12-02T21:19:03.696Z,5.03
2022-12-02T21:21:35.610Z,4.08
2022-12-02T21:24:08.187Z,3.39
2022-12-02T21:26:42.092Z,3.12
2022-12-02T21:29:14.072Z,4.15
2022-12-02T21:31:46.091Z,5.27
2022-12-02T21:34:17.962Z,6.04
2022-12-02T21:36:49.758Z,6.58
2022-12-02T21:39:21.674Z,6.97
2022-12-02T21:41:53.710Z,7.29
2022-12-02T21:44:25.699Z,7.28
2022-12-02T21:46:57.590Z,6.19
2022-12-02T21:49:29.438Z,5.00
2022-12-02T21:52:01.214Z,4.10
2022-12-02T21:54:33.596Z,3.44
2022-12-02T21:57:07.942Z,3.19
2022-12-02T21:59:39.883Z,4.18
2022-12-02T22:02:14.897Z,5.30
2022-12-02T22:04:47.612Z,6.15
2022-12-02T22:07:37.107Z,6.73
2022-12-02T22:10:11.722Z,7.19
2022-12-02T22:12:43.884Z,7.51
2022-12-02T22:15:17.898Z,7.48
2022-12-02T22:17:49.992Z,6.35
2022-12-02T22:20:21.867Z,5.17
2022-12-02T22:22:53.731Z,4.28
2022-12-02T22:25:25.524Z,3.60
2022-12-02T22:27:57.277Z,3.33
2022-12-02T22:30:29.587Z,4.29
2022-12-02T22:33:01.323Z,5.36
2022-12-02T22:35:33.152Z,6.17
2022-12-02T22:38:04.903Z,6.70
2022-12-02T22:40:36.691Z,7.09
2022-12-02T22:43:08.418Z,7.44
2022-12-02T22:45:40.470Z,7.37
2022-12-02T22:48:12.389Z,6.28
2022-12-02T22:50:44.199Z,5.17
2022-12-02T22:53:15.992Z,4.29
2022-12-02T22:55:47.847Z,3.64
2022-12-02T22:58:19.871Z,3.40
2022-12-02T23:00:51.828Z,4.43
2022-12-02T23:03:24.184Z,5.57
2022-12-02T23:05:55.984Z,6.39
2022-12-02T23:08:27.763Z,6.94
2022-12-02T23:10:59.534Z,7.32
2022-12-02T23:13:31.415Z,7.60
2022-12-02T23:16:03.138Z,7.51
2022-12-02T23:18:34.665Z,6.34
2022-12-02T23:21:06.616Z,5.13
2022-12-02T23:23:38.383Z,4.21
2022-12-02T23:26:10.358Z,3.49
2022-12-02T23:28:42.141Z,3.23
2022-12-02T23:31:14.042Z,4.23
2022-12-02T23:33:45.960Z,5.40
2022-12-02T23:36:17.733Z,6.22
2022-12-02T23:38:49.961Z,6.79
2022-12-02T23:41:22.131Z,7.20
2022-12-02T23:43:53.910Z,7.54
2022-12-02T23:46:25.813Z,7.56
2022-12-02T23:48:57.664Z,6.48
2022-12-02T23:51:29.821Z,5.29
2022-12-02T23:54:01.544Z,4.36
2022-12-02T23:56:33.343Z,3.64
2022-12-02T23:59:05.084Z,3.39
